Bayamon, PR

3:40 PM AST on March 28, 2015 (GMT -0400)
La Plata | | Change Station
CLOSE
Current Station
Personal Weather Station
Location: Cayey, CAYEY
Elevation: 1270 ft
Nearby Weather Stations

Elev 1270 ft 18.13 °N, 66.15 °W | Updated 36 seconds ago

Partly Cloudy
Partly Cloudy
80.9 °F
Feels Like 82 °F
N
7.0
Wind Variable Wind from SSE
Gusts 10.0 mph

Today
High -- | Low -- °F
--% Chance of Precip.
Yesterday
High -- | Low -- °F
Precip. -- in
6:22 AM 6:37 PM
Waxing Gibbous, 65% visible
Pressure 30.06 in
Visibility 10.0 miles
Clouds Few 6000 ft
Heat Index 82 °F
Dew Point 64 °F
Humidity 56%
Rainfall 0.02 in
Snow Depth Not available.
UV 7 out of 12
Pollen Not available.
Air Quality Not available.
Flu Activity Not available.
METAR TJSJ 281856Z 06015KT 10SM FEW060 29/22 A3007 RMK AO2 SLP180 T02940217

More Conditions Fewer Conditions

Pressure 30.06 in
Visibility 10.0 miles
Clouds Few 6000 ft
Heat Index 82 °F
Dew Point 64 °F
Humidity 56%
Rainfall 0.02 in
Snow Depth Not available.
UV 7 out of 12
Pollen Not available.
Air Quality Not available.
Flu Activity Not available.
METAR TJSJ 281856Z 06015KT 10SM FEW060 29/22 A3007 RMK AO2 SLP180 T02940217

More Conditions Fewer Conditions

10-Day Weather Forecast

Almanac

Astronomy

Mar. 28, 2015 Rise Set
Actual Time
Civil Twilight
Nautical Twilight
Astronomical Twilight
Moon
Length of Visible Light
Length of Day
Tomorrow will be .
, % of the Moon is Illuminated

Today's Extremes

State Highs State Lows

Community

WunderPhotos

Upload Photos

1,809,076 photos uploaded!

WunderBlogs® & News

Nearby

Air Quality

  Air Quality AQ Index Pollutant
Not available.

Snow Depth

Station Depth Elevation

Earthquake Activity

City Distance Mag. Time & Date
Minimum magnitude displayed is 2.5.

Coastal Water Temperatures

Place Temperature

Stations

Nearby Weather Stations

Station Location Temp. Windchill Dew Point Humidity Wind Precip. Elev Updated Type